Time;durP1;ratioP1;P1;durP2;ratioP2;P2;SDS_P1;SDS_P2;PMS_P1;PMS_P2;Temp;Humidity;BMP_temperature;BMP_pressure;BME280_temperature;BME280_humidity;BME280_pressure;Samples;Min_cycle;Max_cycle;Signal;HPM_P1;HPM_P2
2023/09/06 00:01:25;;;;;;;9.70;3.97;;;19.20;72.10;;;;;;5079678;28;20565;-76
2023/09/06 00:03:55;;;;;;;7.80;3.83;;;19.20;72.10;;;;;;5085203;28;20452;-76
2023/09/06 00:06:23;;;;;;;6.23;3.30;;;19.10;72.20;;;;;;5063926;28;20461;-78
2023/09/06 00:08:51;;;;;;;7.00;3.27;;;19.10;72.20;;;;;;5087136;28;20484;-75
2023/09/06 00:11:19;;;;;;;7.10;3.73;;;19.10;72.20;;;;;;5084315;28;20474;-77
2023/09/06 00:13:47;;;;;;;9.30;4.10;;;19.10;72.20;;;;;;5088906;28;20457;-76
2023/09/06 00:16:21;;;;;;;5.80;3.27;;;19.10;72.20;;;;;;5088389;28;20452;-76
2023/09/06 00:18:50;;;;;;;6.73;3.40;;;19.10;72.10;;;;;;5069949;28;20468;-76
2023/09/06 00:21:19;;;;;;;10.30;3.60;;;19.10;72.00;;;;;;5069669;28;20548;-77
2023/09/06 00:23:49;;;;;;;8.50;4.20;;;19.10;72.00;;;;;;5088396;28;20473;-77
2023/09/06 00:26:17;;;;;;;6.93;3.83;;;19.00;72.10;;;;;;5087650;28;20495;-77
2023/09/06 00:28:46;;;;;;;6.40;3.80;;;19.00;72.20;;;;;;5088147;28;20484;-76
2023/09/06 00:31:14;;;;;;;7.57;3.73;;;18.90;72.20;;;;;;5069446;28;21150;-76
2023/09/06 00:33:42;;;;;;;6.13;3.60;;;18.90;72.20;;;;;;5068860;28;20481;-77
2023/09/06 00:36:10;;;;;;;8.40;4.17;;;18.80;72.20;;;;;;5067898;28;20502;-77
2023/09/06 00:38:39;;;;;;;7.20;3.90;;;18.80;72.20;;;;;;5099518;28;20468;-76
2023/09/06 00:41:08;;;;;;;6.20;3.70;;;18.70;72.30;;;;;;5066627;28;20833;-76
2023/09/06 00:43:36;;;;;;;8.70;4.33;;;18.70;72.40;;;;;;5089405;28;20452;-77
2023/09/06 00:46:07;;;;;;;7.00;3.80;;;18.70;72.50;;;;;;5071637;28;20469;-77
2023/09/06 00:48:36;;;;;;;6.70;3.70;;;18.70;72.50;;;;;;5072722;28;20476;-77
2023/09/06 00:51:07;;;;;;;6.33;3.70;;;18.70;72.50;;;;;;5069920;28;20659;-79
2023/09/06 00:53:36;;;;;;;7.07;4.30;;;18.70;72.50;;;;;;5060502;28;20472;-76
2023/09/06 00:56:08;;;;;;;8.60;4.03;;;18.70;72.60;;;;;;5086335;28;20828;-77
2023/09/06 00:58:37;;;;;;;7.27;4.03;;;18.70;72.60;;;;;;5068481;28;20480;-78
2023/09/06 01:01:06;;;;;;;6.80;4.10;;;18.60;72.30;;;;;;5085692;28;20488;-76
2023/09/06 01:03:35;;;;;;;6.13;3.20;;;18.50;72.40;;;;;;5086538;28;20460;-75
2023/09/06 01:06:09;;;;;;;11.33;4.80;;;18.40;72.40;;;;;;5087945;28;20581;-77
2023/09/06 01:08:41;;;;;;;8.00;4.40;;;18.30;72.70;;;;;;5086312;28;20820;-78
2023/09/06 01:11:22;;;;;;;6.43;3.70;;;18.30;72.90;;;;;;5085352;28;20451;-78
2023/09/06 01:13:52;;;;;;;8.90;4.27;;;18.30;73.00;;;;;;5087748;28;20939;-78
2023/09/06 01:16:26;;;;;;;11.00;4.77;;;18.20;72.90;;;;;;5086674;28;20502;-78
2023/09/06 01:18:54;;;;;;;6.50;3.30;;;18.20;73.00;;;;;;5086002;28;20765;-77
2023/09/06 01:21:26;;;;;;;11.20;4.37;;;18.10;73.00;;;;;;5086124;28;20453;-79
2023/09/06 01:23:56;;;;;;;9.73;4.30;;;18.10;73.10;;;;;;5088081;28;20777;-78
2023/09/06 01:26:24;;;;;;;7.73;4.30;;;18.10;73.20;;;;;;5089736;28;20484;-76
2023/09/06 01:28:52;;;;;;;8.10;4.60;;;18.10;73.20;;;;;;5086721;28;20857;-76
2023/09/06 01:31:20;;;;;;;7.20;3.80;;;18.10;73.10;;;;;;5085290;28;20508;-79
2023/09/06 01:33:48;;;;;;;7.10;3.93;;;18.00;73.10;;;;;;5089648;28;20880;-77
2023/09/06 01:36:16;;;;;;;7.40;3.67;;;18.00;73.20;;;;;;5072821;28;20448;-76
2023/09/06 01:38:45;;;;;;;9.33;3.70;;;18.00;73.20;;;;;;5071534;28;20970;-77
2023/09/06 01:41:14;;;;;;;6.30;3.77;;;17.90;73.20;;;;;;5069436;28;20543;-77
2023/09/06 01:43:42;;;;;;;8.40;4.53;;;17.90;73.20;;;;;;5086067;28;20453;-76
2023/09/06 01:46:10;;;;;;;9.10;4.77;;;17.90;73.10;;;;;;5086402;28;20495;-77
2023/09/06 01:48:39;;;;;;;9.40;4.63;;;17.90;73.10;;;;;;5071816;28;20839;-77
2023/09/06 01:51:09;;;;;;;8.43;4.00;;;17.90;73.10;;;;;;5104973;28;20449;-76
2023/09/06 01:53:38;;;;;;;8.10;4.63;;;17.90;73.10;;;;;;5072618;28;20453;-77
2023/09/06 01:56:07;;;;;;;10.70;4.40;;;17.90;73.10;;;;;;5070719;28;21203;-77
2023/09/06 01:58:37;;;;;;;9.53;3.80;;;17.90;73.10;;;;;;5071595;28;20457;-74
2023/09/06 02:01:07;;;;;;;7.10;4.07;;;17.80;73.10;;;;;;5090794;28;20496;-76
2023/09/06 02:03:36;;;;;;;7.20;3.80;;;17.80;73.00;;;;;;5090650;28;21038;-76
2023/09/06 02:06:04;;;;;;;7.40;4.40;;;17.80;72.90;;;;;;5088686;28;20500;-77
2023/09/06 02:08:35;;;;;;;7.17;3.80;;;17.80;73.00;;;;;;5088745;28;20449;-76
2023/09/06 02:11:03;;;;;;;13.27;4.33;;;17.70;73.00;;;;;;5104507;28;20948;-77
2023/09/06 02:13:33;;;;;;;8.47;4.70;;;17.70;73.00;;;;;;5088888;28;20989;-76
2023/09/06 02:16:04;;;;;;;10.50;4.13;;;17.70;73.00;;;;;;5106149;28;20547;-76
2023/09/06 02:18:32;;;;;;;7.50;5.10;;;17.60;73.20;;;;;;5088659;28;20475;-76
2023/09/06 02:21:02;;;;;;;8.50;4.60;;;17.60;73.20;;;;;;5091389;28;20524;-75
2023/09/06 02:23:30;;;;;;;7.40;4.13;;;17.60;73.30;;;;;;5090705;28;20452;-75
2023/09/06 02:25:58;;;;;;;6.63;3.70;;;17.60;73.30;;;;;;5088781;28;20580;-76
2023/09/06 02:28:26;;;;;;;7.73;4.73;;;17.60;73.30;;;;;;5103296;28;20471;-75
2023/09/06 02:30:55;;;;;;;12.90;4.90;;;17.60;73.30;;;;;;5091210;28;20530;-76
2023/09/06 02:33:28;;;;;;;10.73;4.30;;;17.60;73.20;;;;;;5093283;28;20455;-77
2023/09/06 02:35:56;;;;;;;8.97;4.40;;;17.50;73.10;;;;;;5085480;28;20453;-77
2023/09/06 02:38:24;;;;;;;7.87;4.87;;;17.50;73.10;;;;;;5090715;28;20461;-76
2023/09/06 02:40:53;;;;;;;9.10;4.10;;;17.50;73.20;;;;;;5076537;28;20453;-77
2023/09/06 02:43:22;;;;;;;13.90;4.60;;;17.50;73.20;;;;;;5090634;28;20996;-78
2023/09/06 02:45:54;;;;;;;8.17;4.50;;;17.50;73.20;;;;;;5094208;28;20900;-76
2023/09/06 02:48:27;;;;;;;7.37;4.50;;;17.50;73.20;;;;;;5073676;28;20913;-79
2023/09/06 02:50:58;;;;;;;11.23;5.00;;;17.50;73.20;;;;;;5075427;28;20445;-77
2023/09/06 02:53:31;;;;;;;12.10;4.43;;;17.40;73.20;;;;;;5077139;28;20452;-77
2023/09/06 02:55:59;;;;;;;9.93;4.07;;;17.40;73.20;;;;;;5089765;28;20453;-77
2023/09/06 02:58:27;;;;;;;10.50;4.60;;;17.30;73.10;;;;;;5072609;28;20485;-79
2023/09/06 03:00:57;;;;;;;6.90;4.20;;;17.20;73.00;;;;;;5079091;27;20488;-76
2023/09/06 03:03:28;;;;;;;7.00;4.13;;;17.20;73.10;;;;;;5091381;28;20492;-75
2023/09/06 03:05:58;;;;;;;8.33;4.77;;;17.20;73.20;;;;;;5091826;28;20811;-76
2023/09/06 03:08:28;;;;;;;6.93;3.60;;;17.20;73.20;;;;;;5107998;27;22826;-78
2023/09/06 03:10:57;;;;;;;8.60;4.23;;;17.20;73.20;;;;;;5091392;28;20472;-78
2023/09/06 03:13:26;;;;;;;7.13;3.57;;;17.30;73.30;;;;;;5103983;27;20457;-77
2023/09/06 03:15:54;;;;;;;8.10;5.10;;;17.30;73.30;;;;;;5110879;27;20941;-77
2023/09/06 03:18:23;;;;;;;8.70;4.57;;;17.30;73.10;;;;;;5092045;28;20467;-76
2023/09/06 03:20:55;;;;;;;10.93;4.47;;;17.30;73.00;;;;;;5091697;28;20555;-76
2023/09/06 03:23:26;;;;;;;7.23;4.17;;;17.20;73.00;;;;;;5092050;28;20936;-76
2023/09/06 03:25:57;;;;;;;7.57;4.17;;;17.20;73.00;;;;;;5092149;28;20503;-79
2023/09/06 03:28:32;;;;;;;11.03;4.23;;;17.20;72.90;;;;;;5094804;28;20949;-76
2023/09/06 03:31:02;;;;;;;7.13;4.20;;;17.20;72.80;;;;;;5101160;28;20502;-77
2023/09/06 03:33:31;;;;;;;7.73;4.20;;;17.10;72.70;;;;;;5088715;28;20522;-76
2023/09/06 03:36:00;;;;;;;9.70;5.03;;;17.10;72.70;;;;;;5070813;28;20529;-75
2023/09/06 03:38:29;;;;;;;11.50;4.53;;;17.10;72.80;;;;;;5089052;28;20959;-77
2023/09/06 03:41:02;;;;;;;7.37;4.13;;;17.10;72.90;;;;;;5070316;28;21091;-77
2023/09/06 03:43:32;;;;;;;9.90;4.67;;;17.10;73.00;;;;;;5084490;28;20464;-78
2023/09/06 03:46:04;;;;;;;7.43;4.03;;;17.10;73.00;;;;;;5068811;28;20449;-79
2023/09/06 03:48:35;;;;;;;8.07;5.03;;;17.10;72.80;;;;;;5068893;28;20587;-75
2023/09/06 03:51:05;;;;;;;10.07;5.27;;;17.00;72.80;;;;;;5090145;28;20804;-78
2023/09/06 03:53:37;;;;;;;8.20;5.13;;;17.00;72.70;;;;;;5070559;28;20467;-77
2023/09/06 03:56:10;;;;;;;9.30;4.83;;;16.90;72.80;;;;;;5069961;28;20448;-77
2023/09/06 03:58:42;;;;;;;9.63;4.80;;;16.90;72.70;;;;;;5098277;28;20493;-76
2023/09/06 04:01:15;;;;;;;10.70;4.70;;;16.80;72.80;;;;;;5069107;28;20571;-75
2023/09/06 04:03:46;;;;;;;10.77;4.50;;;16.80;72.80;;;;;;5069410;28;20537;-76
2023/09/06 04:06:16;;;;;;;8.13;5.07;;;16.80;72.90;;;;;;5071267;28;20453;-77
2023/09/06 04:08:45;;;;;;;10.03;4.10;;;16.80;72.90;;;;;;5090784;28;20507;-75
2023/09/06 04:11:14;;;;;;;8.10;4.73;;;16.80;73.00;;;;;;5089037;28;20445;-76
2023/09/06 04:13:44;;;;;;;9.10;4.77;;;16.80;72.90;;;;;;5089816;28;20484;-75
2023/09/06 04:16:15;;;;;;;9.40;4.40;;;16.80;72.80;;;;;;5085815;28;20461;-76
2023/09/06 04:18:44;;;;;;;9.10;4.57;;;16.60;72.70;;;;;;5088409;28;21089;-76
2023/09/06 04:21:12;;;;;;;12.60;4.90;;;16.60;72.80;;;;;;5068510;28;20494;-75
2023/09/06 04:23:44;;;;;;;9.43;4.90;;;16.50;72.90;;;;;;5070654;28;20532;-75
2023/09/06 04:26:19;;;;;;;11.87;5.67;;;16.40;72.90;;;;;;5067699;28;20463;-76
2023/09/06 04:28:49;;;;;;;10.80;5.13;;;16.40;73.00;;;;;;5068419;28;20463;-77
2023/09/06 04:31:19;;;;;;;8.13;5.10;;;16.30;73.10;;;;;;5092646;28;21035;-77
2023/09/06 04:33:48;;;;;;;9.83;5.33;;;16.30;73.30;;;;;;5089903;28;20985;-77
2023/09/06 04:36:21;;;;;;;10.20;5.10;;;16.30;73.50;;;;;;5087857;28;21195;-76
2023/09/06 04:38:56;;;;;;;12.00;5.00;;;16.30;73.50;;;;;;5087371;28;20460;-75
2023/09/06 04:41:25;;;;;;;16.30;5.70;;;16.40;73.50;;;;;;5090266;28;20467;-75
2023/09/06 04:43:59;;;;;;;8.70;5.70;;;16.40;73.50;;;;;;5086835;28;21430;-77
2023/09/06 04:46:29;;;;;;;9.60;5.17;;;16.40;73.10;;;;;;5089739;28;20970;-76
2023/09/06 04:48:58;;;;;;;12.27;6.00;;;16.30;73.00;;;;;;5091898;28;20456;-79
2023/09/06 04:51:27;;;;;;;7.70;5.40;;;16.30;73.10;;;;;;5089488;28;20451;-78
2023/09/06 04:53:56;;;;;;;10.80;6.13;;;16.20;73.20;;;;;;5090562;28;21149;-77
2023/09/06 04:56:30;;;;;;;9.33;5.10;;;16.20;73.30;;;;;;5089495;28;20550;-76
2023/09/06 04:58:59;;;;;;;8.70;4.83;;;16.20;73.30;;;;;;5089619;28;20451;-76
2023/09/06 05:01:48;;;;;;;10.27;5.60;;;16.20;73.30;;;;;;5090757;28;20475;-76
2023/09/06 05:04:19;;;;;;;13.57;5.33;;;16.20;73.30;;;;;;5096095;28;20958;-76
2023/09/06 05:06:48;;;;;;;8.50;4.73;;;16.20;73.20;;;;;;5098098;28;20459;-76
2023/09/06 05:09:19;;;;;;;13.27;5.37;;;16.20;73.30;;;;;;5090407;28;20464;-75
2023/09/06 05:11:48;;;;;;;8.40;4.60;;;16.20;73.50;;;;;;5089934;28;20615;-76
2023/09/06 05:14:16;;;;;;;10.40;5.10;;;16.30;73.50;;;;;;5090378;28;20857;-75
2023/09/06 05:16:45;;;;;;;9.90;5.73;;;16.40;74.60;;;;;;5089788;28;20881;-78
2023/09/06 05:19:13;;;;;;;11.07;4.73;;;17.30;75.80;;;;;;5109286;28;20946;-75
2023/09/06 05:21:42;;;;;;;12.57;5.00;;;18.20;73.40;;;;;;5108482;28;20448;-75
2023/09/06 05:24:10;;;;;;;8.90;5.13;;;18.40;71.20;;;;;;5088364;28;20483;-75
2023/09/06 05:26:40;;;;;;;9.10;5.70;;;18.10;70.70;;;;;;5089708;28;20517;-76
2023/09/06 05:29:08;;;;;;;10.63;6.30;;;17.90;70.80;;;;;;5089732;28;20507;-76
2023/09/06 05:31:36;;;;;;;9.60;4.83;;;17.60;71.00;;;;;;5085828;28;20559;-77
2023/09/06 05:34:04;;;;;;;13.30;5.80;;;17.40;71.20;;;;;;5069880;28;20545;-75
2023/09/06 05:36:32;;;;;;;14.50;5.40;;;17.20;71.30;;;;;;5084724;28;21414;-75
2023/09/06 05:39:00;;;;;;;8.43;5.30;;;17.00;71.50;;;;;;5087973;28;20521;-76
2023/09/06 05:41:28;;;;;;;9.53;5.53;;;16.90;71.90;;;;;;5069467;28;20551;-76
2023/09/06 05:43:58;;;;;;;9.70;5.20;;;16.90;72.10;;;;;;5069286;28;20522;-76
2023/09/06 05:46:27;;;;;;;8.83;5.87;;;16.90;72.20;;;;;;5086312;28;20830;-77
2023/09/06 05:49:08;;;;;;;9.90;5.37;;;16.80;72.30;;;;;;5074645;28;20553;-76
2023/09/06 05:51:41;;;;;;;10.70;6.33;;;16.80;72.40;;;;;;5068463;28;21205;-75
2023/09/06 05:54:09;;;;;;;12.90;6.30;;;16.80;72.50;;;;;;5083727;28;20460;-78
2023/09/06 05:56:39;;;;;;;9.90;5.77;;;16.80;72.50;;;;;;5069172;28;20453;-76
2023/09/06 05:59:09;;;;;;;10.70;6.40;;;16.80;72.70;;;;;;5068420;28;20456;-77
2023/09/06 06:01:37;;;;;;;11.80;7.00;;;16.80;72.90;;;;;;5068878;28;20919;-79
2023/09/06 06:04:05;;;;;;;9.87;6.90;;;16.80;73.00;;;;;;5084664;28;21014;-77
2023/09/06 06:06:34;;;;;;;12.43;8.40;;;16.80;73.20;;;;;;5085606;28;20455;-76
2023/09/06 06:09:03;;;;;;;15.03;8.63;;;16.80;73.40;;;;;;5070890;28;20472;-77
2023/09/06 06:11:32;;;;;;;15.93;7.57;;;16.80;73.70;;;;;;5073430;28;20922;-78
2023/09/06 06:13:59;;;;;;;12.20;7.73;;;16.80;73.90;;;;;;5088569;28;20461;-79
2023/09/06 06:16:39;;;;;;;11.13;8.03;;;16.90;74.10;;;;;;5089121;28;20486;-79
2023/09/06 06:19:09;;;;;;;13.77;7.90;;;17.00;74.20;;;;;;5089892;28;20468;-77
2023/09/06 06:21:38;;;;;;;10.50;7.37;;;17.10;74.30;;;;;;5090354;28;20453;-77
2023/09/06 06:24:08;;;;;;;26.03;8.60;;;17.20;74.20;;;;;;5072815;28;20444;-79
2023/09/06 06:26:36;;;;;;;11.00;7.63;;;17.20;74.30;;;;;;5070981;28;20592;-78
2023/09/06 06:29:04;;;;;;;13.83;8.30;;;17.30;74.40;;;;;;5088725;28;20490;-78
2023/09/06 06:31:33;;;;;;;13.03;8.30;;;17.40;74.40;;;;;;5090806;28;20472;-80
2023/09/06 06:34:02;;;;;;;19.43;8.40;;;17.50;74.60;;;;;;5088951;28;20445;-78
2023/09/06 06:36:32;;;;;;;11.10;8.23;;;17.50;74.80;;;;;;5086112;28;20461;-79
2023/09/06 06:39:00;;;;;;;11.73;8.40;;;17.60;74.90;;;;;;5090816;28;20815;-77
2023/09/06 06:41:28;;;;;;;13.07;7.50;;;17.70;74.80;;;;;;5088921;28;20974;-77
2023/09/06 06:43:57;;;;;;;18.70;7.83;;;17.70;75.00;;;;;;5087948;28;20473;-78
2023/09/06 06:46:27;;;;;;;10.60;6.93;;;17.80;75.20;;;;;;5089760;28;20460;-77
2023/09/06 06:48:56;;;;;;;11.03;7.10;;;17.90;75.20;;;;;;5088886;28;20962;-79
2023/09/06 06:51:27;;;;;;;12.43;6.80;;;17.90;75.30;;;;;;5091164;28;20445;-79
2023/09/06 06:53:56;;;;;;;10.93;7.53;;;18.00;75.40;;;;;;5088350;28;20544;-78
2023/09/06 06:56:24;;;;;;;10.87;6.90;;;18.00;75.50;;;;;;5072343;28;20927;-76
2023/09/06 06:58:52;;;;;;;11.70;6.63;;;18.10;75.60;;;;;;5088003;28;21057;-77
2023/09/06 07:01:24;;;;;;;13.63;7.10;;;18.20;75.70;;;;;;5087656;28;20883;-76
2023/09/06 07:03:52;;;;;;;10.50;6.30;;;18.20;75.80;;;;;;5089185;28;20457;-79
2023/09/06 07:06:20;;;;;;;14.53;7.70;;;18.30;75.90;;;;;;5089404;28;20463;-79
2023/09/06 07:08:49;;;;;;;11.63;7.10;;;18.40;76.00;;;;;;5072990;28;20734;-77
2023/09/06 07:11:17;;;;;;;9.73;6.77;;;18.50;76.10;;;;;;5091246;28;20480;-78
2023/09/06 07:13:47;;;;;;;9.30;6.67;;;18.60;76.10;;;;;;5087972;28;20460;-77
2023/09/06 07:16:16;;;;;;;10.77;6.43;;;18.60;76.10;;;;;;5090128;28;20464;-78
2023/09/06 07:18:45;;;;;;;8.57;5.77;;;18.70;76.10;;;;;;5088166;28;20469;-77
2023/09/06 07:21:13;;;;;;;10.67;6.33;;;18.80;76.10;;;;;;5089332;28;20487;-80
2023/09/06 07:23:41;;;;;;;14.07;6.60;;;18.90;76.10;;;;;;5091054;28;20476;-77
2023/09/06 07:26:11;;;;;;;9.50;6.53;;;19.00;76.10;;;;;;5073321;28;20460;-78
2023/09/06 07:28:40;;;;;;;14.30;7.03;;;19.10;75.90;;;;;;5070098;28;20468;-78
2023/09/06 07:31:09;;;;;;;10.87;7.00;;;19.20;75.70;;;;;;5087694;28;20476;-79
2023/09/06 07:33:38;;;;;;;11.20;5.73;;;19.30;75.60;;;;;;5088103;28;20444;-78
2023/09/06 07:36:07;;;;;;;9.00;6.13;;;19.30;75.40;;;;;;5089655;28;20997;-77
2023/09/06 07:38:35;;;;;;;11.10;5.90;;;19.40;75.30;;;;;;5071764;28;20959;-77
2023/09/06 07:41:05;;;;;;;9.13;5.80;;;19.50;75.20;;;;;;5084609;28;20502;-77
2023/09/06 07:43:36;;;;;;;9.40;6.37;;;19.50;75.00;;;;;;5089895;28;20456;-77
2023/09/06 07:46:10;;;;;;;10.87;6.20;;;19.60;74.90;;;;;;5089332;28;20479;-78
2023/09/06 07:48:38;;;;;;;10.07;5.20;;;19.70;74.70;;;;;;5087680;28;20492;-77
2023/09/06 07:51:07;;;;;;;8.83;5.33;;;19.80;74.50;;;;;;5088142;28;20452;-80
2023/09/06 07:53:35;;;;;;;8.27;5.20;;;19.80;74.30;;;;;;5087866;28;20453;-79
2023/09/06 07:56:05;;;;;;;9.70;5.87;;;19.90;74.20;;;;;;5087918;28;20449;-79
2023/09/06 07:58:35;;;;;;;9.73;5.00;;;19.90;74.10;;;;;;5089143;28;20954;-78
2023/09/06 08:01:04;;;;;;;12.47;5.57;;;20.00;74.00;;;;;;5070248;28;20516;-77
2023/09/06 08:03:46;;;;;;;11.70;5.60;;;20.10;74.00;;;;;;5087684;28;20449;-77
2023/09/06 08:06:15;;;;;;;11.97;6.10;;;20.20;73.90;;;;;;5089576;28;20523;-79
2023/09/06 08:08:45;;;;;;;8.30;5.40;;;20.20;73.90;;;;;;5089083;28;20492;-79
2023/09/06 08:11:13;;;;;;;9.90;5.00;;;20.20;74.00;;;;;;5087128;28;20445;-78
2023/09/06 08:13:42;;;;;;;11.60;5.97;;;20.30;74.10;;;;;;5088574;28;20540;-80
2023/09/06 08:16:11;;;;;;;7.77;5.33;;;20.40;74.10;;;;;;5072059;28;20463;-78
2023/09/06 08:18:40;;;;;;;10.97;5.63;;;20.40;74.00;;;;;;5087531;28;20999;-78
2023/09/06 08:21:09;;;;;;;10.03;6.10;;;20.40;73.90;;;;;;5089510;28;20455;-79
2023/09/06 08:23:37;;;;;;;12.47;5.53;;;20.40;73.80;;;;;;5086594;28;20467;-77
2023/09/06 08:26:05;;;;;;;13.27;4.83;;;20.50;73.70;;;;;;5088055;28;20453;-79
2023/09/06 08:28:33;;;;;;;9.60;5.37;;;20.60;73.50;;;;;;5085061;28;20459;-79
2023/09/06 08:31:02;;;;;;;8.73;5.50;;;20.70;73.20;;;;;;5096077;28;20571;-77
2023/09/06 08:33:30;;;;;;;11.83;5.40;;;20.70;72.90;;;;;;5106990;28;20448;-79
2023/09/06 08:35:59;;;;;;;9.20;5.03;;;20.80;72.60;;;;;;5109036;28;20509;-77
2023/09/06 08:38:27;;;;;;;9.67;4.53;;;20.90;72.30;;;;;;5106604;28;20930;-77
2023/09/06 08:40:56;;;;;;;9.27;4.83;;;21.00;71.90;;;;;;5108163;28;20460;-78
2023/09/06 08:43:29;;;;;;;10.17;5.33;;;21.00;71.70;;;;;;5108237;28;20933;-78
2023/09/06 08:45:59;;;;;;;8.20;5.10;;;21.10;71.40;;;;;;5090426;28;21264;-78
2023/09/06 08:48:29;;;;;;;13.90;5.13;;;21.20;71.10;;;;;;5108069;28;20459;-77
2023/09/06 08:50:59;;;;;;;8.30;4.83;;;21.30;70.70;;;;;;5108994;28;21030;-79
2023/09/06 08:53:28;;;;;;;11.47;5.57;;;21.30;70.50;;;;;;5108427;28;20448;-78
2023/09/06 08:55:59;;;;;;;10.87;4.83;;;21.40;70.40;;;;;;5108524;28;20452;-78
2023/09/06 08:58:28;;;;;;;9.00;5.13;;;21.50;70.20;;;;;;5105586;28;20436;-79
2023/09/06 09:00:56;;;;;;;9.00;5.00;;;21.50;69.90;;;;;;5108585;28;20467;-79
2023/09/06 09:03:25;;;;;;;8.87;4.60;;;21.60;69.70;;;;;;5108966;28;20504;-79
2023/09/06 09:05:59;;;;;;;10.83;4.70;;;21.70;69.40;;;;;;5110542;28;20505;-76
2023/09/06 09:08:28;;;;;;;9.97;5.70;;;21.80;69.00;;;;;;5109404;28;20552;-78
2023/09/06 09:11:09;;;;;;;9.30;4.90;;;21.90;68.80;;;;;;5111334;28;20475;-77
2023/09/06 09:13:37;;;;;;;8.63;5.20;;;21.90;68.60;;;;;;5089329;28;20452;-78
2023/09/06 09:16:08;;;;;;;9.73;4.57;;;22.00;68.60;;;;;;5106911;28;20440;-77
2023/09/06 09:18:37;;;;;;;8.50;4.50;;;22.10;68.40;;;;;;5108880;28;20875;-78
2023/09/06 09:21:09;;;;;;;9.80;4.70;;;22.10;68.20;;;;;;5108958;28;20447;-78
2023/09/06 09:23:44;;;;;;;11.63;4.83;;;22.10;68.10;;;;;;5105862;28;20444;-77
2023/09/06 09:26:12;;;;;;;11.00;5.43;;;22.20;68.10;;;;;;5108399;28;20466;-79
2023/09/06 09:28:42;;;;;;;11.93;4.80;;;22.30;68.00;;;;;;5106287;28;20456;-79
2023/09/06 09:31:13;;;;;;;8.93;4.47;;;22.30;67.80;;;;;;5076916;28;20558;-79
2023/09/06 09:33:43;;;;;;;10.90;4.40;;;22.40;67.60;;;;;;5087284;28;20506;-78
2023/09/06 09:36:15;;;;;;;8.83;4.97;;;22.50;67.40;;;;;;5069498;28;20457;-78
2023/09/06 09:38:48;;;;;;;7.67;4.57;;;22.50;67.30;;;;;;5085289;28;20455;-80
2023/09/06 09:41:16;;;;;;;8.83;5.10;;;22.60;67.00;;;;;;5088533;28;20455;-78
2023/09/06 09:43:44;;;;;;;10.00;5.10;;;22.70;66.70;;;;;;5089036;28;20459;-79
2023/09/06 09:46:25;;;;;;;12.07;4.97;;;22.70;66.60;;;;;;5090959;28;20514;-79
2023/09/06 09:48:55;;;;;;;8.00;4.43;;;22.80;66.50;;;;;;5090302;28;20502;-78
2023/09/06 09:51:24;;;;;;;10.10;4.90;;;22.90;66.40;;;;;;5089132;28;21046;-78
2023/09/06 09:53:52;;;;;;;8.50;4.53;;;22.90;66.30;;;;;;5091724;28;20494;-76
2023/09/06 09:56:22;;;;;;;11.70;4.80;;;23.00;66.20;;;;;;5089197;28;20537;-77
2023/09/06 09:59:13;;;;;;;8.30;4.70;;;23.00;66.00;;;;;;5090120;28;20458;-77
2023/09/06 10:01:41;;;;;;;7.70;4.63;;;23.10;65.60;;;;;;5080318;28;20480;-78
2023/09/06 10:04:12;;;;;;;9.47;4.53;;;23.20;65.70;;;;;;5085680;28;20487;-77
2023/09/06 10:06:42;;;;;;;7.53;4.13;;;23.20;65.60;;;;;;5067809;28;20452;-78
2023/09/06 10:09:12;;;;;;;8.10;4.93;;;23.30;65.40;;;;;;5091006;28;20449;-77
2023/09/06 10:11:42;;;;;;;10.80;4.57;;;23.40;65.20;;;;;;5091025;28;20820;-78
2023/09/06 10:14:13;;;;;;;12.93;4.83;;;23.50;65.10;;;;;;5087188;28;20467;-77
2023/09/06 10:16:41;;;;;;;11.23;4.53;;;23.50;64.90;;;;;;5089359;28;20467;-78
2023/09/06 10:19:11;;;;;;;8.57;4.30;;;23.60;64.80;;;;;;5091920;28;20460;-78
2023/09/06 10:21:41;;;;;;;8.50;4.53;;;23.60;64.60;;;;;;5086174;28;20464;-76
2023/09/06 10:24:16;;;;;;;7.90;4.20;;;23.60;64.30;;;;;;5072444;28;20453;-78
2023/09/06 10:26:46;;;;;;;10.03;5.27;;;23.70;64.00;;;;;;5089677;28;20541;-77
2023/09/06 10:29:20;;;;;;;6.63;4.00;;;23.80;63.90;;;;;;5091809;28;20531;-77
2023/09/06 10:31:50;;;;;;;7.90;4.97;;;23.80;63.90;;;;;;5097793;28;20835;-77
2023/09/06 10:34:18;;;;;;;7.67;4.47;;;23.90;63.90;;;;;;5107967;28;20898;-79
2023/09/06 10:36:56;;;;;;;8.73;4.77;;;23.90;63.50;;;;;;5107570;28;20925;-79
2023/09/06 10:39:26;;;;;;;7.83;4.40;;;24.00;63.20;;;;;;5105014;27;20559;-77
2023/09/06 10:42:21;;;;;;;10.27;5.00;;;24.00;63.30;;;;;;5107218;27;20992;-77
2023/09/06 10:45:19;;;;;;;10.60;4.90;;;24.10;63.10;;;;;;5108344;28;20535;-77
2023/09/06 10:47:48;;;;;;;7.87;4.80;;;24.20;62.70;;;;;;5060509;28;20478;-78
2023/09/06 10:50:20;;;;;;;8.50;4.80;;;24.30;62.70;;;;;;5103001;28;20571;-79
2023/09/06 10:52:53;;;;;;;9.53;4.10;;;24.30;62.30;;;;;;5106802;27;20464;-79
2023/09/06 10:55:26;;;;;;;7.17;4.17;;;24.30;62.30;;;;;;5096330;28;20528;-79
2023/09/06 10:58:03;;;;;;;8.43;4.57;;;24.30;62.00;;;;;;5109453;27;20491;-79
2023/09/06 11:00:34;;;;;;;6.93;3.97;;;24.30;61.90;;;;;;5106457;28;20477;-78
2023/09/06 11:03:21;;;;;;;10.07;4.43;;;24.40;61.70;;;;;;5088348;28;20453;-79
2023/09/06 11:05:54;;;;;;;7.27;3.93;;;24.50;61.40;;;;;;5089981;28;20452;-77
2023/09/06 11:08:32;;;;;;;9.03;4.20;;;24.40;61.40;;;;;;5071393;28;20464;-80
2023/09/06 11:11:06;;;;;;;7.83;4.00;;;24.50;61.20;;;;;;5090965;28;20472;-79
2023/09/06 11:13:34;;;;;;;7.70;4.50;;;24.60;61.30;;;;;;5089447;28;20816;-78
2023/09/06 11:16:04;;;;;;;8.13;4.60;;;24.70;61.20;;;;;;5089894;28;20488;-80
2023/09/06 11:18:42;;;;;;;6.77;3.70;;;24.70;61.10;;;;;;5090236;28;20540;-78
2023/09/06 11:21:10;;;;;;;8.93;5.17;;;24.80;60.90;;;;;;5090570;28;20658;-79
2023/09/06 11:23:47;;;;;;;8.93;4.30;;;24.90;60.60;;;;;;5089595;28;20472;-79
2023/09/06 11:26:15;;;;;;;7.70;3.67;;;25.00;60.20;;;;;;5088510;28;20460;-79
2023/09/06 11:28:44;;;;;;;8.77;4.17;;;25.00;60.30;;;;;;5088174;28;20540;-78
2023/09/06 11:31:23;;;;;;;9.40;4.00;;;25.10;60.30;;;;;;5086007;28;20571;-79
2023/09/06 11:33:55;;;;;;;9.40;4.40;;;25.10;59.80;;;;;;5079907;28;20881;-78
2023/09/06 11:36:29;;;;;;;9.07;4.63;;;25.10;59.70;;;;;;5080054;28;20449;-78
2023/09/06 11:39:03;;;;;;;8.20;4.07;;;25.20;59.40;;;;;;5083549;28;21148;-77
2023/09/06 11:41:31;;;;;;;8.53;3.73;;;25.30;59.10;;;;;;5081225;28;20478;-77
2023/09/06 11:44:06;;;;;;;9.50;4.53;;;25.30;59.10;;;;;;5080098;28;20444;-78
2023/09/06 11:46:36;;;;;;;6.50;3.40;;;25.40;58.80;;;;;;5081984;28;20485;-78
2023/09/06 11:49:06;;;;;;;8.00;4.40;;;25.50;58.70;;;;;;5076304;28;20456;-79
2023/09/06 11:51:34;;;;;;;6.43;3.30;;;25.50;58.60;;;;;;5078353;28;20475;-78
2023/09/06 11:54:09;;;;;;;8.70;4.20;;;25.60;58.50;;;;;;5079089;28;20535;-78
2023/09/06 11:56:42;;;;;;;12.60;3.83;;;25.60;58.30;;;;;;5080187;28;20448;-78
2023/09/06 11:59:12;;;;;;;13.43;3.63;;;25.60;58.00;;;;;;5080666;28;20467;-78
2023/09/06 12:01:43;;;;;;;7.50;4.10;;;25.70;57.60;;;;;;5076826;28;21022;-78
2023/09/06 12:04:15;;;;;;;7.60;3.57;;;25.80;57.40;;;;;;5081744;28;20490;-77
2023/09/06 12:06:44;;;;;;;6.87;4.00;;;25.80;57.50;;;;;;5066425;28;20468;-78
2023/09/06 12:09:18;;;;;;;7.00;3.40;;;25.90;57.30;;;;;;5079044;28;20449;-77
2023/09/06 12:11:46;;;;;;;12.10;4.40;;;25.90;57.20;;;;;;5077505;28;20561;-78
2023/09/06 12:14:15;;;;;;;9.27;4.10;;;26.00;57.00;;;;;;5078424;28;20817;-77
2023/09/06 12:16:43;;;;;;;6.50;3.33;;;26.00;57.00;;;;;;5083630;28;20531;-78
2023/09/06 12:19:12;;;;;;;9.87;3.17;;;26.00;56.90;;;;;;5076976;28;20552;-78
2023/09/06 12:21:40;;;;;;;6.90;3.93;;;26.10;56.60;;;;;;5077892;28;20949;-77
2023/09/06 12:24:09;;;;;;;9.50;4.00;;;26.10;56.70;;;;;;5076221;28;20453;-79
2023/09/06 12:26:38;;;;;;;6.70;3.60;;;26.10;56.70;;;;;;5084621;28;21134;-79
2023/09/06 12:29:06;;;;;;;8.57;3.47;;;26.20;56.50;;;;;;5083362;28;20461;-78
2023/09/06 12:31:36;;;;;;;8.20;4.10;;;26.20;56.30;;;;;;5081152;28;20477;-78
2023/09/06 12:34:06;;;;;;;7.93;4.00;;;26.30;56.10;;;;;;5078578;28;20456;-79
2023/09/06 12:36:34;;;;;;;6.47;3.60;;;26.30;56.10;;;;;;5082483;28;20457;-80
2023/09/06 12:39:06;;;;;;;7.60;3.90;;;26.30;55.90;;;;;;5079261;28;20457;-78
2023/09/06 12:41:34;;;;;;;14.83;3.80;;;26.40;55.80;;;;;;5077071;28;20493;-80
2023/09/06 12:44:07;;;;;;;12.83;4.37;;;26.40;55.80;;;;;;5077681;28;21037;-79
2023/09/06 12:46:35;;;;;;;7.40;4.10;;;26.50;55.60;;;;;;5074816;28;20493;-76
2023/09/06 12:49:05;;;;;;;6.00;3.43;;;26.50;55.50;;;;;;5078330;28;20475;-77
2023/09/06 12:51:35;;;;;;;7.73;3.67;;;26.50;55.40;;;;;;5077781;28;20996;-76
2023/09/06 12:54:05;;;;;;;7.10;4.00;;;26.50;55.30;;;;;;5074343;28;20955;-79
2023/09/06 12:56:36;;;;;;;8.70;3.67;;;26.50;55.20;;;;;;5082396;28;20542;-77
2023/09/06 12:59:04;;;;;;;7.00;3.40;;;26.60;55.20;;;;;;5078524;28;20886;-79